createdAt,value
2023-03-23T15:57:55.270Z,97124.06
2023-03-23T16:00:27.029Z,97117.44
2023-03-23T16:03:05.307Z,97126.34
2023-03-23T16:05:33.738Z,97130.66
2023-03-23T16:08:01.514Z,97118.28
2023-03-23T16:10:30.275Z,97130.78
2023-03-23T16:12:57.315Z,97120.44
2023-03-23T16:15:24.701Z,97130.25
2023-03-23T16:17:52.128Z,97120.63
2023-03-23T16:20:23.052Z,97126.00
2023-03-23T16:22:51.683Z,97129.22
2023-03-23T16:25:19.558Z,97124.59
2023-03-23T16:27:52.047Z,97128.38
2023-03-23T16:30:25.853Z,97135.06
2023-03-23T16:32:54.891Z,97124.06
2023-03-23T16:35:23.923Z,97126.38
2023-03-23T16:38:07.834Z,97130.50
2023-03-23T16:40:37.194Z,97132.28
2023-03-23T16:43:08.801Z,97132.75
2023-03-23T16:45:43.784Z,97132.06
2023-03-23T16:48:13.230Z,97128.81
2023-03-23T16:50:41.262Z,97130.81
2023-03-23T16:53:09.469Z,97144.66
2023-03-23T16:55:38.028Z,97139.28
2023-03-23T16:58:16.107Z,97143.16
2023-03-23T17:00:46.948Z,97135.63
2023-03-23T17:03:16.580Z,97143.84
2023-03-23T17:05:45.247Z,97143.59
2023-03-23T17:08:13.462Z,97143.03
2023-03-23T17:10:41.728Z,97136.78
2023-03-23T17:13:09.519Z,97123.28
2023-03-23T17:15:41.377Z,97121.66
2023-03-23T17:18:08.762Z,97112.06
2023-03-23T17:20:36.397Z,97118.44
2023-03-23T17:23:04.582Z,97112.06
2023-03-23T17:25:32.106Z,97115.84
2023-03-23T17:28:16.653Z,97109.41
2023-03-23T17:30:45.448Z,97108.00
2023-03-23T17:33:13.772Z,97109.84
2023-03-23T17:35:42.685Z,97099.75
2023-03-23T17:38:09.945Z,97107.00
2023-03-23T17:40:37.561Z,97113.28
2023-03-23T17:43:04.795Z,97107.81
2023-03-23T17:45:31.801Z,97104.38
2023-03-23T17:47:59.211Z,97102.91
2023-03-23T17:50:26.255Z,97103.59
2023-03-23T17:52:53.341Z,97097.94
2023-03-23T17:55:20.824Z,97095.78
2023-03-23T17:57:47.890Z,97099.50
2023-03-23T18:00:16.022Z,97105.47
2023-03-23T18:02:43.069Z,97101.59
2023-03-23T18:05:10.871Z,97106.34
2023-03-23T18:07:37.984Z,97097.19
2023-03-23T18:10:11.764Z,97102.34
2023-03-23T18:12:42.229Z,97105.53
2023-03-23T18:15:10.971Z,97105.47
2023-03-23T18:17:38.370Z,97104.25
2023-03-23T18:20:07.340Z,97105.63
2023-03-23T18:22:35.049Z,97108.69
2023-03-23T18:25:05.072Z,97112.63
2023-03-23T18:27:36.169Z,97106.69
2023-03-23T18:30:03.709Z,97114.91
2023-03-23T18:32:30.664Z,97122.03
2023-03-23T18:34:58.215Z,97123.59
2023-03-23T18:37:26.026Z,97107.22
2023-03-23T18:39:54.683Z,97114.19
2023-03-23T18:42:21.806Z,97113.25
2023-03-23T18:45:04.945Z,97111.22
2023-03-23T18:47:37.509Z,97105.06
2023-03-23T18:50:10.460Z,97110.16
2023-03-23T18:52:38.021Z,97098.84
2023-03-23T18:55:05.987Z,97108.81
2023-03-23T18:57:33.620Z,97105.03
2023-03-23T19:00:00.642Z,97097.56
2023-03-23T19:02:27.885Z,97112.31
2023-03-23T19:04:55.232Z,97108.25
2023-03-23T19:07:22.963Z,97113.78
2023-03-23T19:09:50.434Z,97108.97
2023-03-23T19:12:17.917Z,97112.44
2023-03-23T19:14:45.043Z,97113.50
2023-03-23T19:17:12.281Z,97108.59
2023-03-23T19:19:43.068Z,97117.75
2023-03-23T19:22:12.405Z,97109.81
2023-03-23T19:24:39.483Z,97117.63
2023-03-23T19:27:08.012Z,97116.78
2023-03-23T19:29:35.316Z,97120.16
2023-03-23T19:32:03.246Z,97117.19
2023-03-23T19:34:31.202Z,97119.28
2023-03-23T19:37:05.341Z,97124.97
2023-03-23T19:39:33.900Z,97125.50
2023-03-23T19:42:01.425Z,97117.13
2023-03-23T19:44:29.133Z,97116.34
2023-03-23T19:46:56.632Z,97128.56
2023-03-23T19:49:25.056Z,97123.88
2023-03-23T19:52:05.211Z,97128.13
2023-03-23T19:54:38.486Z,97131.63
2023-03-23T19:57:05.868Z,97126.91
2023-03-23T19:59:33.685Z,97120.34
2023-03-23T20:02:02.100Z,97123.94
2023-03-23T20:04:29.332Z,97123.03
2023-03-23T20:06:57.158Z,97119.50
2023-03-23T20:09:25.325Z,97113.31
2023-03-23T20:11:53.682Z,97123.00
2023-03-23T20:14:21.155Z,97112.31
2023-03-23T20:16:48.556Z,97113.44
2023-03-23T20:19:15.544Z,97107.53
2023-03-23T20:21:42.485Z,97111.22
2023-03-23T20:24:09.856Z,97111.88
2023-03-23T20:26:41.600Z,97109.31
2023-03-23T20:29:09.035Z,97108.91
2023-03-23T20:31:39.926Z,97104.50
2023-03-23T20:34:12.848Z,97100.41
2023-03-23T20:36:47.008Z,97111.53
2023-03-23T20:39:23.124Z,97108.97
2023-03-23T20:41:54.450Z,97097.47
2023-03-23T20:44:25.439Z,97101.56
2023-03-23T20:46:53.773Z,97098.91
2023-03-23T20:49:22.041Z,97087.28
2023-03-23T20:51:49.102Z,97091.31
2023-03-23T20:54:18.642Z,97086.44
2023-03-23T20:56:46.824Z,97090.63
2023-03-23T20:59:14.759Z,97086.28
2023-03-23T21:01:49.338Z,97071.38
2023-03-23T21:04:22.932Z,97072.97
2023-03-23T21:07:00.210Z,97085.16
2023-03-23T21:09:27.625Z,97075.16
2023-03-23T21:11:54.694Z,97074.63
2023-03-23T21:14:21.753Z,97066.06
2023-03-23T21:16:49.098Z,97069.41
2023-03-23T21:19:17.089Z,97068.84
2023-03-23T21:21:56.826Z,97061.03
2023-03-23T21:24:30.521Z,97066.38
2023-03-23T21:27:00.766Z,97062.66
2023-03-23T21:29:28.460Z,97075.34
2023-03-23T21:34:27.811Z,97058.34
2023-03-23T21:36:55.404Z,97052.19
2023-03-23T21:39:23.541Z,97045.41
2023-03-23T21:41:50.426Z,97046.31
2023-03-23T21:44:18.202Z,97041.88
2023-03-23T21:46:45.702Z,97041.06
2023-03-23T21:49:16.294Z,97040.91
2023-03-23T21:51:43.943Z,97036.16
2023-03-23T21:54:11.976Z,97039.16
2023-03-23T21:56:39.832Z,97028.13
2023-03-23T21:59:07.993Z,97024.69
2023-03-23T22:01:36.961Z,97025.63
2023-03-23T22:04:05.209Z,97005.91
2023-03-23T22:06:34.335Z,97010.75
2023-03-23T22:09:05.294Z,97005.50
2023-03-23T22:11:32.898Z,97009.00
2023-03-23T22:14:01.059Z,96997.84
2023-03-23T22:16:28.658Z,96991.75
2023-03-23T22:18:58.853Z,96994.31
2023-03-23T22:21:27.665Z,96986.44
2023-03-23T22:23:59.310Z,96988.16
2023-03-23T22:26:27.863Z,96975.38
2023-03-23T22:28:55.800Z,96979.19
2023-03-23T22:31:27.877Z,96961.88
2023-03-23T22:33:56.883Z,96963.41
2023-03-23T22:36:26.439Z,96951.91
2023-03-23T22:38:55.100Z,96945.72
2023-03-23T22:41:42.411Z,96937.91
2023-03-23T22:44:18.086Z,96925.28
2023-03-23T22:46:46.058Z,96925.41
2023-03-23T22:49:13.383Z,96916.69
2023-03-23T22:51:40.763Z,96911.38
2023-03-23T22:54:07.779Z,96920.63
2023-03-23T22:56:37.022Z,96907.13
2023-03-23T22:59:08.324Z,96897.31
2023-03-23T23:01:35.982Z,96891.63
2023-03-23T23:04:03.984Z,96888.38
2023-03-23T23:06:31.638Z,96914.72
2023-03-23T23:08:59.088Z,96905.91
2023-03-23T23:11:26.941Z,96905.47
2023-03-23T23:13:54.285Z,96909.56
2023-03-23T23:16:22.258Z,96903.91
2023-03-23T23:18:49.741Z,96899.59
2023-03-23T23:21:20.232Z,96903.13
2023-03-23T23:23:47.655Z,96907.59
2023-03-23T23:26:16.303Z,96908.63
2023-03-23T23:28:45.605Z,96916.03
2023-03-23T23:31:26.609Z,96911.44
2023-03-23T23:33:56.727Z,96917.00
2023-03-23T23:36:29.603Z,96913.41
2023-03-23T23:39:01.344Z,96911.28
2023-03-23T23:41:29.924Z,96927.69
2023-03-23T23:43:57.345Z,96931.53
2023-03-23T23:46:24.889Z,96928.22
2023-03-23T23:48:52.339Z,96925.16
2023-03-23T23:51:19.477Z,96928.56
2023-03-23T23:53:53.099Z,96913.34
2023-03-23T23:56:24.101Z,96926.25
2023-03-23T23:58:51.706Z,96952.19
